Rechercher aéroport 
image banner adimage banner adimage banner ad
image banner ad

67CN - El Dorado Irrigation District

Situé à Placerville, United States

ICAO - 67CN, IATA -

Données fournies par Airmate  

Information générale

Coordonnées: N38°45'52" W120°32'54"
Élévation : 3800 feet MSL.
Variation magnétique : 16° East
Voir autres Aéroports à California

Données opérationnelles

Special qualification required
Heure actuelle UTC:
Heure actuelle locale:
Météo à : KPVF - Placerville ( 18 km )
METAR: KPVF 020515Z AUTO 20004KT 10SM CLR 22/06 A3014 RMK AO1
Voir NOTAMs / SUP AIP / TFR affectant cet aéroport [VIEW]
Fréquences de communication: [VIEW]

Pistes:

Coordonnées de l'aéroport

Adresse: Placerville United States

Vue satellite de 67CN